createdAt,value
2019-05-30T00:00:49.646Z,75.84
2019-05-30T00:03:37.484Z,75.77
2019-05-30T00:06:24.808Z,75.84
2019-05-30T00:09:13.544Z,75.92
2019-05-30T00:12:01.274Z,76.36
2019-05-30T00:14:48.757Z,76.37
2019-05-30T00:17:36.363Z,76.11
2019-05-30T00:20:23.519Z,75.94
2019-05-30T00:23:11.258Z,76.08
2019-05-30T00:25:59.154Z,76.89
2019-05-30T00:28:46.450Z,77.17
2019-05-30T00:31:33.895Z,77.30
2019-05-30T00:34:21.607Z,77.53
2019-05-30T00:37:09.476Z,77.61
2019-05-30T00:39:57.764Z,77.80
2019-05-30T00:42:45.512Z,77.57
2019-05-30T00:45:33.302Z,77.30
2019-05-30T00:48:20.607Z,77.12
2019-05-30T00:51:08.328Z,76.73
2019-05-30T00:53:56.485Z,76.26
2019-05-30T00:56:44.679Z,76.47
2019-05-30T00:59:32.307Z,76.49
2019-05-30T01:02:20.010Z,76.96
2019-05-30T01:05:08.271Z,76.81
2019-05-30T01:07:56.697Z,76.09
2019-05-30T01:10:43.825Z,76.53
2019-05-30T01:13:31.220Z,76.89
2019-05-30T01:16:18.708Z,76.85
2019-05-30T01:19:07.372Z,76.45
2019-05-30T01:21:55.167Z,76.62
2019-05-30T01:24:42.842Z,76.66
2019-05-30T01:27:30.499Z,76.45
2019-05-30T01:30:17.762Z,76.07
2019-05-30T01:33:05.875Z,76.77
2019-05-30T01:35:53.581Z,77.22
2019-05-30T01:38:40.960Z,76.51
2019-05-30T01:41:28.833Z,76.76
2019-05-30T01:44:16.179Z,76.19
2019-05-30T01:47:04.194Z,76.03
2019-05-30T01:49:51.758Z,76.44
2019-05-30T01:52:39.670Z,76.54
2019-05-30T01:55:27.098Z,76.45
2019-05-30T01:58:14.834Z,76.52
2019-05-30T02:01:17.128Z,76.39
2019-05-30T02:03:51.279Z,76.10
2019-05-30T02:06:39.144Z,76.38
2019-05-30T02:09:26.598Z,75.89
2019-05-30T02:12:14.379Z,76.18
2019-05-30T02:15:01.550Z,76.29
2019-05-30T02:17:48.778Z,75.95
2019-05-30T02:20:36.115Z,75.70
2019-05-30T02:23:23.538Z,75.84
2019-05-30T02:26:10.955Z,75.61
2019-05-30T02:28:58.272Z,74.80
2019-05-30T02:31:45.803Z,74.96
2019-05-30T02:34:33.161Z,74.95
2019-05-30T02:37:20.654Z,75.32
2019-05-30T02:40:14.349Z,75.30
2019-05-30T02:42:58.707Z,75.26
2019-05-30T02:45:46.073Z,75.80
2019-05-30T02:48:33.444Z,75.47
2019-05-30T02:51:20.844Z,74.66
2019-05-30T02:54:09.431Z,75.01
2019-05-30T02:56:58.888Z,75.34
2019-05-30T02:59:46.186Z,75.00
2019-05-30T03:02:34.040Z,75.22
2019-05-30T03:05:22.708Z,75.31
2019-05-30T03:08:13.925Z,75.35
2019-05-30T03:10:59.607Z,75.05
2019-05-30T03:13:47.441Z,75.02
2019-05-30T03:16:34.967Z,74.31
2019-05-30T03:19:22.427Z,74.28
2019-05-30T03:22:12.154Z,73.96
2019-05-30T03:24:59.148Z,74.17
2019-05-30T03:27:46.845Z,74.02
2019-05-30T03:30:34.355Z,73.95
2019-05-30T03:33:37.852Z,74.22
2019-05-30T03:36:19.957Z,74.12
2019-05-30T03:38:59.631Z,74.36
2019-05-30T03:41:47.505Z,74.99
2019-05-30T03:44:34.938Z,74.88
2019-05-30T03:47:23.307Z,74.72
2019-05-30T03:50:14.605Z,74.58
2019-05-30T03:53:01.374Z,74.94
2019-05-30T03:55:54.103Z,74.34
2019-05-30T03:58:58.593Z,73.08
2019-05-30T04:02:03.182Z,73.91
2019-05-30T04:04:55.819Z,73.70
2019-05-30T04:07:47.838Z,73.32
2019-05-30T04:10:38.662Z,74.17
2019-05-30T04:13:34.131Z,73.58
2019-05-30T04:16:21.320Z,73.49
2019-05-30T04:19:09.956Z,72.99
2019-05-30T04:21:57.379Z,72.47
2019-05-30T04:24:44.517Z,72.45
2019-05-30T04:27:32.234Z,72.08
2019-05-30T04:30:20.109Z,72.85
2019-05-30T04:33:20.793Z,72.42
2019-05-30T04:35:58.035Z,71.52
2019-05-30T04:38:45.542Z,73.01
2019-05-30T04:41:33.600Z,72.71
2019-05-30T04:44:21.522Z,72.79
2019-05-30T04:47:10.008Z,71.57
2019-05-30T04:49:57.631Z,71.36
2019-05-30T04:52:45.251Z,73.29
2019-05-30T04:55:32.964Z,72.28
2019-05-30T04:58:23.522Z,71.51
2019-05-30T05:01:10.938Z,70.62
2019-05-30T05:03:58.908Z,70.17
2019-05-30T05:06:46.250Z,70.35
2019-05-30T05:09:34.038Z,70.01
2019-05-30T05:12:22.450Z,69.48
2019-05-30T05:15:10.308Z,69.85
2019-05-30T05:17:57.630Z,69.34
2019-05-30T05:20:45.117Z,68.20
2019-05-30T05:23:33.003Z,67.58
2019-05-30T05:26:21.635Z,66.61
2019-05-30T05:29:09.370Z,66.57
2019-05-30T05:31:57.013Z,66.91
2019-05-30T05:34:44.325Z,67.62
2019-05-30T05:37:31.746Z,68.05
2019-05-30T05:40:20.159Z,67.18
2019-05-30T05:43:07.729Z,66.42
2019-05-30T05:45:55.082Z,67.65
2019-05-30T05:48:42.423Z,66.48
2019-05-30T05:51:30.236Z,66.14
2019-05-30T05:54:18.833Z,65.77
2019-05-30T05:57:06.714Z,65.22
2019-05-30T05:59:54.083Z,64.06
2019-05-30T06:02:41.936Z,63.08
2019-05-30T06:05:29.425Z,62.37
2019-05-30T06:08:17.463Z,63.43
2019-05-30T06:11:04.730Z,61.83
2019-05-30T06:13:52.404Z,62.11
2019-05-30T06:16:40.035Z,61.79
2019-05-30T06:19:27.555Z,61.06
2019-05-30T06:22:15.098Z,60.81
2019-05-30T06:25:03.013Z,60.52
2019-05-30T06:27:50.304Z,60.28
2019-05-30T06:30:37.790Z,60.72
2019-05-30T06:33:25.186Z,60.61
2019-05-30T06:36:12.571Z,60.23
2019-05-30T06:38:59.708Z,59.00
2019-05-30T06:41:47.126Z,57.86
2019-05-30T06:44:34.747Z,58.27
2019-05-30T06:47:22.866Z,57.75
2019-05-30T06:50:10.904Z,58.81
2019-05-30T06:52:58.626Z,59.51
2019-05-30T06:55:47.245Z,58.92
2019-05-30T06:58:47.883Z,58.79
2019-05-30T07:01:23.826Z,58.42
2019-05-30T07:04:11.759Z,59.14
2019-05-30T07:06:59.346Z,58.20
2019-05-30T07:09:46.860Z,57.32
2019-05-30T07:12:34.487Z,56.71
2019-05-30T07:15:23.122Z,54.92
2019-05-30T07:18:10.637Z,53.27
2019-05-30T07:20:58.289Z,46.47
2019-05-30T07:23:46.228Z,42.62
2019-05-30T07:26:34.071Z,41.27
2019-05-30T07:29:21.756Z,39.59
2019-05-30T07:32:13.196Z,38.66
2019-05-30T07:35:06.767Z,39.35
2019-05-30T07:37:47.441Z,37.29
2019-05-30T07:40:35.060Z,35.67
2019-05-30T07:43:24.933Z,36.16
2019-05-30T07:46:11.419Z,36.21
2019-05-30T07:48:58.813Z,39.14
2019-05-30T07:51:45.948Z,39.82
2019-05-30T07:54:33.383Z,39.63
2019-05-30T07:57:22.452Z,38.29
2019-05-30T08:00:11.062Z,37.57
2019-05-30T08:02:58.174Z,36.94
2019-05-30T08:05:45.281Z,36.28
2019-05-30T08:08:33.851Z,36.85
2019-05-30T08:11:21.473Z,36.59
2019-05-30T08:14:09.334Z,39.90
2019-05-30T08:16:56.841Z,40.00
2019-05-30T08:19:43.938Z,39.51
2019-05-30T08:22:31.950Z,37.43
2019-05-30T08:25:19.233Z,38.16
2019-05-30T08:28:06.744Z,37.99
2019-05-30T08:30:56.796Z,37.27
2019-05-30T08:33:47.008Z,36.78
2019-05-30T08:36:32.975Z,36.55
2019-05-30T08:39:20.784Z,36.59
2019-05-30T08:42:08.503Z,36.48
2019-05-30T08:44:56.431Z,37.85
2019-05-30T08:47:43.556Z,37.08
2019-05-30T08:50:32.391Z,36.91
2019-05-30T08:53:20.343Z,38.04
2019-05-30T08:56:07.985Z,37.49
2019-05-30T08:58:55.372Z,38.22
2019-05-30T09:01:43.886Z,40.00
2019-05-30T09:04:31.409Z,43.44
2019-05-30T09:07:19.113Z,45.93
2019-05-30T09:10:07.266Z,46.29
2019-05-30T09:12:54.782Z,47.65
2019-05-30T09:15:43.033Z,48.35
2019-05-30T09:18:30.820Z,47.22
2019-05-30T09:21:18.547Z,49.28
2019-05-30T09:24:06.187Z,48.84
2019-05-30T09:26:53.834Z,49.64
2019-05-30T09:29:42.760Z,49.50
2019-05-30T09:32:31.001Z,49.08
2019-05-30T09:35:19.270Z,49.59
2019-05-30T09:38:06.407Z,50.41
2019-05-30T09:40:54.298Z,49.59
2019-05-30T09:43:42.906Z,50.60
2019-05-30T09:46:31.610Z,50.60
2019-05-30T09:49:18.789Z,48.96
2019-05-30T09:52:06.534Z,47.62
2019-05-30T09:54:53.922Z,47.80
2019-05-30T09:57:42.966Z,49.00
2019-05-30T10:00:32.269Z,49.98
2019-05-30T10:03:19.656Z,48.44
2019-05-30T10:06:07.073Z,50.13
2019-05-30T10:08:54.772Z,47.98
2019-05-30T10:11:42.811Z,47.09
2019-05-30T10:14:31.902Z,48.34
2019-05-30T10:17:19.441Z,47.63
2019-05-30T10:20:09.585Z,47.14
2019-05-30T10:22:57.315Z,44.95
2019-05-30T10:25:45.955Z,47.37
2019-05-30T10:28:34.342Z,44.51
2019-05-30T10:31:21.802Z,43.86
2019-05-30T10:34:08.950Z,42.55
2019-05-30T10:36:56.710Z,44.08
2019-05-30T10:39:45.703Z,44.69
2019-05-30T10:42:33.719Z,44.85
2019-05-30T10:45:23.115Z,44.10
2019-05-30T10:48:10.406Z,43.62
2019-05-30T10:50:58.055Z,42.79
2019-05-30T10:53:47.419Z,42.22
2019-05-30T10:56:34.546Z,41.61
2019-05-30T10:59:21.727Z,42.60
2019-05-30T11:02:09.257Z,42.53
2019-05-30T11:04:57.552Z,41.17
2019-05-30T11:08:04.022Z,41.12
2019-05-30T11:10:47.013Z,39.28
2019-05-30T11:13:34.399Z,41.46
2019-05-30T11:16:22.314Z,40.02
2019-05-30T11:19:09.722Z,39.46
2019-05-30T11:21:58.166Z,38.68
2019-05-30T11:24:45.514Z,37.13
2019-05-30T11:27:33.877Z,38.26
2019-05-30T11:30:21.622Z,36.99
2019-05-30T11:33:09.545Z,36.74
2019-05-30T11:35:57.159Z,38.61
2019-05-30T11:38:44.673Z,38.47
2019-05-30T11:41:32.264Z,37.80
2019-05-30T11:44:20.079Z,37.12
2019-05-30T11:47:07.463Z,35.13
2019-05-30T11:49:55.728Z,35.37
2019-05-30T11:52:43.409Z,34.94
2019-05-30T11:55:32.866Z,34.80
2019-05-30T11:58:20.850Z,35.04
2019-05-30T12:01:08.308Z,36.29
2019-05-30T12:03:56.587Z,34.47
2019-05-30T12:06:44.057Z,34.43
2019-05-30T12:09:31.615Z,33.23
2019-05-30T12:12:18.890Z,32.15
2019-05-30T12:15:06.755Z,34.24
2019-05-30T12:17:55.325Z,34.04
2019-05-30T12:20:43.437Z,32.14
2019-05-30T12:23:33.941Z,33.13
2019-05-30T12:26:21.407Z,31.25
2019-05-30T12:29:09.183Z,31.98
2019-05-30T12:31:59.964Z,31.59
2019-05-30T12:34:45.543Z,32.96
2019-05-30T12:37:32.952Z,31.89
2019-05-30T12:40:21.129Z,30.66
2019-05-30T12:43:08.465Z,29.06
2019-05-30T12:45:56.907Z,27.21
2019-05-30T12:48:44.490Z,29.05
2019-05-30T12:51:32.100Z,25.93
2019-05-30T12:54:19.758Z,23.93
2019-05-30T12:57:07.414Z,25.40
2019-05-30T12:59:54.771Z,26.40
2019-05-30T13:02:42.556Z,26.28
2019-05-30T13:05:30.113Z,26.47
2019-05-30T13:08:21.860Z,26.03
2019-05-30T13:11:06.918Z,25.47
2019-05-30T13:13:55.051Z,24.91
2019-05-30T13:16:42.863Z,26.06
2019-05-30T13:19:30.137Z,27.75
2019-05-30T13:22:17.509Z,27.39
2019-05-30T13:25:06.419Z,27.69
2019-05-30T13:27:53.962Z,28.90
2019-05-30T13:30:41.557Z,28.46
2019-05-30T13:33:29.035Z,27.18
2019-05-30T13:36:16.402Z,27.82
2019-05-30T13:39:05.273Z,28.35
2019-05-30T13:41:52.508Z,29.31
2019-05-30T13:44:40.327Z,28.07
2019-05-30T13:47:27.765Z,28.62
2019-05-30T13:50:15.802Z,29.69
2019-05-30T13:53:03.155Z,27.95
2019-05-30T13:55:51.015Z,28.51
2019-05-30T13:58:38.245Z,28.87
2019-05-30T14:01:25.633Z,29.23
2019-05-30T14:04:13.077Z,28.00
2019-05-30T14:07:02.174Z,27.34
2019-05-30T14:09:49.793Z,27.86
2019-05-30T14:12:37.420Z,28.48
2019-05-30T14:15:25.055Z,28.60
2019-05-30T14:18:12.519Z,29.13
2019-05-30T14:21:01.881Z,30.05
2019-05-30T14:23:49.372Z,29.25
2019-05-30T14:26:36.390Z,29.61
2019-05-30T14:29:24.116Z,29.89
2019-05-30T14:32:14.026Z,29.24
2019-05-30T14:35:02.348Z,28.50
2019-05-30T14:37:49.875Z,28.76
2019-05-30T14:40:37.622Z,30.20
2019-05-30T14:43:25.068Z,28.26
2019-05-30T14:46:13.537Z,28.31
2019-05-30T14:49:00.957Z,28.86
2019-05-30T14:51:48.688Z,27.83
2019-05-30T14:54:35.826Z,27.49
2019-05-30T14:57:22.946Z,26.78
2019-05-30T15:00:13.505Z,26.70
2019-05-30T15:03:00.891Z,26.54
2019-05-30T15:05:48.305Z,26.58
2019-05-30T15:08:35.608Z,27.21
2019-05-30T15:11:23.037Z,26.89
2019-05-30T15:14:10.837Z,27.17
2019-05-30T15:16:58.329Z,27.41
2019-05-30T15:19:45.366Z,27.19
2019-05-30T15:22:32.993Z,29.10
2019-05-30T15:25:20.342Z,27.36
2019-05-30T15:28:08.063Z,27.78
2019-05-30T15:30:55.153Z,27.29
2019-05-30T15:33:42.566Z,27.46
2019-05-30T15:36:29.848Z,27.25
2019-05-30T15:39:31.597Z,27.69
2019-05-30T15:42:07.230Z,26.68
2019-05-30T15:44:54.877Z,27.73
2019-05-30T15:47:42.181Z,27.87
2019-05-30T15:50:30.090Z,27.87
2019-05-30T15:53:17.720Z,29.13
2019-05-30T15:56:05.483Z,29.49
2019-05-30T15:58:52.848Z,30.14
2019-05-30T16:01:40.170Z,30.11
2019-05-30T16:04:27.702Z,30.11
2019-05-30T16:07:15.309Z,30.14
2019-05-30T16:10:03.093Z,30.20
2019-05-30T16:12:50.535Z,30.54
2019-05-30T16:15:37.652Z,32.21
2019-05-30T16:18:24.760Z,30.77
2019-05-30T16:21:13.102Z,31.00
2019-05-30T16:24:01.862Z,30.80
2019-05-30T16:26:49.500Z,29.82
2019-05-30T16:29:37.257Z,30.03
2019-05-30T16:32:24.862Z,30.91
2019-05-30T16:35:14.025Z,31.25
2019-05-30T16:38:01.510Z,31.35
2019-05-30T16:40:48.934Z,31.92
2019-05-30T16:43:36.213Z,32.03
2019-05-30T16:46:24.250Z,32.24
2019-05-30T16:49:11.525Z,32.50
2019-05-30T16:51:58.546Z,33.01
2019-05-30T16:54:48.431Z,33.76
2019-05-30T16:57:36.412Z,34.32
2019-05-30T17:00:24.558Z,34.69
2019-05-30T17:03:12.025Z,34.85
2019-05-30T17:05:59.811Z,35.11
2019-05-30T17:08:47.389Z,36.09
2019-05-30T17:11:35.083Z,36.16
2019-05-30T17:14:22.414Z,35.22
2019-05-30T17:17:10.257Z,36.06
2019-05-30T17:19:57.301Z,36.32
2019-05-30T17:22:44.743Z,36.62
2019-05-30T17:25:31.814Z,36.70
2019-05-30T17:28:20.321Z,36.20
2019-05-30T17:31:07.904Z,35.79
2019-05-30T17:33:55.515Z,35.69
2019-05-30T17:36:43.402Z,35.99
2019-05-30T17:39:31.161Z,36.84
2019-05-30T17:42:18.739Z,36.97
2019-05-30T17:45:06.910Z,36.88
2019-05-30T17:47:59.681Z,36.51
2019-05-30T17:50:43.063Z,36.82
2019-05-30T17:53:30.850Z,37.36
2019-05-30T17:56:18.191Z,36.47
2019-05-30T17:59:05.853Z,36.41
2019-05-30T18:01:53.466Z,36.91
2019-05-30T18:04:41.063Z,36.65
2019-05-30T18:07:29.151Z,36.65
2019-05-30T18:10:17.320Z,36.26
2019-05-30T18:13:04.842Z,36.42
2019-05-30T18:15:51.939Z,36.40
2019-05-30T18:18:39.408Z,36.73
2019-05-30T18:21:27.462Z,36.41
2019-05-30T18:24:15.308Z,36.58
2019-05-30T18:27:03.075Z,37.26
2019-05-30T18:29:50.428Z,37.89
2019-05-30T18:35:42.903Z,38.49
2019-05-30T18:38:30.551Z,38.04
2019-05-30T18:41:18.065Z,38.06
2019-05-30T18:44:06.272Z,38.52
2019-05-30T18:46:53.906Z,38.25
2019-05-30T18:49:41.291Z,37.55
2019-05-30T18:52:28.771Z,38.20
2019-05-30T18:55:16.335Z,38.54
2019-05-30T18:58:07.175Z,38.67
2019-05-30T19:00:52.950Z,38.79
2019-05-30T19:03:40.562Z,38.67
2019-05-30T19:06:29.797Z,38.92
2019-05-30T19:09:17.439Z,38.94
2019-05-30T19:12:04.863Z,39.01
2019-05-30T19:14:52.427Z,39.34
2019-05-30T19:17:39.710Z,39.80
2019-05-30T19:20:27.668Z,40.62
2019-05-30T19:23:15.095Z,40.80
2019-05-30T19:26:02.333Z,41.31
2019-05-30T19:28:49.412Z,41.60
2019-05-30T19:31:37.012Z,42.16
2019-05-30T19:34:25.026Z,42.12
2019-05-30T19:37:12.521Z,42.65
2019-05-30T19:40:00.022Z,43.23
2019-05-30T19:42:47.464Z,43.87
2019-05-30T19:45:34.590Z,44.41
2019-05-30T19:48:21.938Z,44.53
2019-05-30T19:51:09.118Z,45.26
2019-05-30T19:53:56.553Z,45.47
2019-05-30T19:56:44.738Z,45.95
2019-05-30T19:59:33.769Z,46.13
2019-05-30T20:02:21.400Z,45.55
2019-05-30T20:05:08.777Z,45.27
2019-05-30T20:07:56.127Z,45.64
2019-05-30T20:10:43.641Z,46.05
2019-05-30T20:13:31.111Z,46.86
2019-05-30T20:16:18.610Z,47.38
2019-05-30T20:19:06.099Z,46.97
2019-05-30T20:21:53.414Z,46.67
2019-05-30T20:24:40.893Z,46.53
2019-05-30T20:27:28.669Z,46.24
2019-05-30T20:30:17.998Z,47.47
2019-05-30T20:33:05.461Z,47.98
2019-05-30T20:35:53.106Z,46.77
2019-05-30T20:38:40.693Z,46.43
2019-05-30T20:41:27.949Z,47.08
2019-05-30T20:44:15.672Z,47.84
2019-05-30T20:47:02.819Z,48.22
2019-05-30T20:49:50.297Z,48.27
2019-05-30T20:52:40.496Z,47.84
2019-05-30T20:55:27.202Z,47.97
2019-05-30T20:58:14.566Z,48.52
2019-05-30T21:01:01.922Z,48.74
2019-05-30T21:03:49.533Z,48.52
2019-05-30T21:06:38.782Z,48.94
2019-05-30T21:09:29.285Z,48.88
2019-05-30T21:12:17.546Z,48.86
2019-05-30T21:15:06.680Z,48.60
2019-05-30T21:17:53.835Z,49.05
2019-05-30T21:20:42.142Z,49.21
2019-05-30T21:23:29.453Z,49.10
2019-05-30T21:26:18.119Z,49.25
2019-05-30T21:29:06.249Z,49.29
2019-05-30T21:31:53.948Z,50.82
2019-05-30T21:34:44.433Z,50.51
2019-05-30T21:37:32.861Z,50.73
2019-05-30T21:40:20.726Z,50.50
2019-05-30T21:43:08.403Z,50.39
2019-05-30T21:45:55.554Z,50.73
2019-05-30T21:48:43.145Z,50.99
2019-05-30T21:51:30.513Z,51.14
2019-05-30T21:54:18.152Z,50.54
2019-05-30T21:57:05.803Z,50.68
2019-05-30T21:59:53.330Z,50.33
2019-05-30T22:02:44.509Z,51.11
2019-05-30T22:05:32.251Z,51.51
2019-05-30T22:08:20.550Z,51.58
2019-05-30T22:11:08.602Z,51.77
2019-05-30T22:13:56.154Z,51.74
2019-05-30T22:16:44.004Z,51.91
2019-05-30T22:19:31.833Z,51.91
2019-05-30T22:22:19.387Z,52.07
2019-05-30T22:25:07.870Z,53.15
2019-05-30T22:27:55.009Z,52.38
2019-05-30T22:30:42.485Z,53.34
2019-05-30T22:33:30.304Z,53.56
2019-05-30T22:36:17.482Z,54.10
2019-05-30T22:39:08.787Z,53.09
2019-05-30T22:41:56.341Z,54.06
2019-05-30T22:44:44.382Z,53.79
2019-05-30T22:47:31.724Z,53.25
2019-05-30T22:50:18.791Z,52.79
2019-05-30T22:53:06.262Z,53.57
2019-05-30T22:55:54.280Z,53.71
2019-05-30T22:58:41.893Z,53.80
2019-05-30T23:01:29.506Z,54.83
2019-05-30T23:04:17.168Z,54.92
2019-05-30T23:07:05.023Z,55.18
2019-05-30T23:09:53.991Z,54.69
2019-05-30T23:12:43.989Z,54.96
2019-05-30T23:15:31.310Z,54.92
2019-05-30T23:18:19.441Z,55.08
2019-05-30T23:21:07.053Z,55.24
2019-05-30T23:23:55.272Z,55.35
2019-05-30T23:26:42.965Z,55.29
2019-05-30T23:29:30.593Z,55.37
2019-05-30T23:32:17.904Z,55.85
2019-05-30T23:35:05.756Z,55.69
2019-05-30T23:37:53.111Z,55.59
2019-05-30T23:40:40.702Z,55.64
2019-05-30T23:43:27.786Z,55.92
2019-05-30T23:46:15.304Z,56.11
2019-05-30T23:49:02.953Z,56.10
2019-05-30T23:51:52.433Z,55.86
2019-05-30T23:54:40.557Z,56.07
2019-05-30T23:57:28.146Z,56.19
